Atlantic Merida — 9V9008 — position and weather

sailwx.info

Track history (hours):
 
Tides and Currents Weather Stations Pressure Air Temp Water Temp Dewpoint Dewpoint Depression Visibility Wind Speed Wind Dir Waves Ship Positions

Atlantic Merida

Last reported at 2018-Apr-02 20:30 UTC. Time now 2018-Apr-21 16:57 UTC.
Position S 24°03' W 046°21'.
Warning: this ship's position is 18 days out of date.

Length 190 m; draft 13 m.

Type: Cargo ship. MMSI: 566349000.

Date/timePositionNaut miles runAvg speedWind from/ knotsBaromVisibWave heightAir tempDewpointWater temp
2018-Apr-02 20:30S 24°03' W 046°21'3 6.7
2018-Apr-02 20:00S 24°00' W 046°20'3 5.9
2018-Apr-02 19:30S 23°58' W 046°18'1 0.6
2018-Apr-02 17:14S 23°57' W 046°19'0 0.0
2018-Apr-02 16:59S 23°57' W 046°19'0 0.0
2018-Apr-02 16:29S 23°57' W 046°19'0 0.0
2018-Apr-01 16:44S 23°57' W 046°19'0 0.0
2018-Mar-31 21:55S 23°57' W 046°19'2 4.0
2018-Mar-31 21:30S 23°58' W 046°18'3 5.2
2018-Mar-31 21:00S 23°60' W 046°20'  
Track history (hours):
 
Tides and Currents Weather Stations Pressure Air Temp Water Temp Dewpoint Dewpoint Depression Visibility Wind Speed Wind Dir Waves Ship Positions

Atlantic Merida

Last reported at 2018-Apr-02 20:30 UTC. Time now 2018-Apr-21 16:57 UTC.
Position S 24°03' W 046°21'.
Warning: this ship's position is 18 days out of date.

Length 190 m; draft 13 m.

Type: Cargo ship. MMSI: 566349000.

Date/timePositionNaut miles runAvg speedWind from/ knotsBaromVisibWave heightAir tempDewpointWater temp
2018-Apr-02 20:30S 24°03' W 046°21'3 6.7
2018-Apr-02 20:00S 24°00' W 046°20'3 5.9
2018-Apr-02 19:30S 23°58' W 046°18'1 0.6
2018-Apr-02 17:14S 23°57' W 046°19'0 0.0
2018-Apr-02 16:59S 23°57' W 046°19'0 0.0
2018-Apr-02 16:29S 23°57' W 046°19'0 0.0
2018-Apr-01 16:44S 23°57' W 046°19'0 0.0
2018-Mar-31 21:55S 23°57' W 046°19'2 4.0
2018-Mar-31 21:30S 23°58' W 046°18'3 5.2
2018-Mar-31 21:00S 23°60' W 046°20'  

Dump ship's entire track history